| time (UTC) | temp C | wind direction | speed KPH | gust KPH | rain 1hr cm | rain 24hr cm | rain mn cm | humidity % | barometer mb |
| 20260502231515 | -17 | 0.0 | 9.7 | 0.00 | 0.00 | 0.00 | |||
| 20260502230516 | -17 | 56 | 0.0 | 4.8 | 0.00 | 0.00 | 0.00 | ||
| 20260502225515 | -17 | 58 | 1.6 | 9.7 | 0.00 | 0.00 | 0.00 | ||
| 20260502224538 | -17 | 28 | 1.6 | 11.3 | 0.00 | 0.00 | 0.00 | ||
| 20260502223517 | -17 | 274 | 0.0 | 4.8 | 0.00 | 0.00 | 0.00 | ||
| 20260502222517 | -17 | 236 | 0.0 | 1.6 | 0.00 | 0.00 | 0.00 | ||
| 20260502221515 | -17 | 0.0 | 11.3 | 0.00 | 0.00 | 0.00 | |||
| 20260502220515 | -17 | 286 | 1.6 | 12.9 | 0.00 | 0.00 | 0.00 | ||
| 20260502215516 | -17 | 257 | 12.9 | 29.0 | 0.00 | 0.00 | 0.00 | ||
| 20260502214517 | -17 | 238 | 6.4 | 25.7 | 0.00 | 0.00 | 0.00 | ||
| 20260502213517 | -17 | 71 | 0.0 | 6.4 | 0.00 | 0.00 | 0.00 | ||
| 20260502212516 | -17 | 71 | 0.0 | 8.0 | 0.00 | 0.00 | 0.00 | ||
| 20260502211536 | -17 | 69 | 1.6 | 9.7 | 0.00 | 0.00 | 0.00 | ||
| 20260502210537 | -17 | 15 | 0.0 | 4.8 | 0.00 | 0.00 | 0.00 | ||
| 20260502205515 | -17 | 97 | 0.0 | 11.3 | 0.00 | 0.00 | 0.00 | ||
| 20260502204515 | -17 | 52 | 0.0 | 8.0 | 0.00 | 0.00 | 0.00 | ||
| 20260502203535 | -17 | 45 | 0.0 | 9.7 | 0.00 | 0.00 | 0.00 | ||
| 20260502202516 | -17 | 47 | 0.0 | 9.7 | 0.00 | 0.00 | 0.00 | ||
| 20260502201538 | -17 | 44 | 0.0 | 9.7 | 0.00 | 0.00 | 0.00 | ||
| 20260502200515 | -17 | 47 | 0.0 | 6.4 | 0.00 | 0.00 | 0.00 | ||
| 20260502195516 | -17 | 46 | 1.6 | 8.0 | 0.00 | 0.00 | 0.00 | ||
| 20260502194515 | -17 | 0.0 | 0.0 | 0.00 | 0.00 | 0.00 | |||
| 20260502193517 | -17 | 45 | 0.0 | 3.2 | 0.00 | 0.00 | 0.00 | ||
| 20260502192515 | -17 | 0.0 | 3.2 | 0.00 | 0.00 | 0.00 | |||
| 20260502191517 | -17 | 46 | 0.0 | 8.0 | 0.00 | 0.00 | 0.00 | ||
| 20260502190515 | -17 | 31 | 0.0 | 3.2 | 0.00 | 0.00 | 0.00 | ||
| 20260502185537 | -17 | 31 | 0.0 | 8.0 | 0.00 | 0.00 | 0.00 | ||
| 20260502184515 | -17 | 35 | 0.0 | 11.3 | 0.00 | 0.00 | 0.00 | ||
| 20260502183515 | -17 | 16 | 3.2 | 12.9 | 0.00 | 0.00 | 0.00 | ||
| 20260502182515 | -17 | 30 | 1.6 | 16.1 | 0.00 | 0.00 | 0.00 | ||
| 20260502181515 | -17 | 27 | 4.8 | 12.9 | 0.00 | 0.00 | 0.00 | ||
| 20260502180517 | -17 | 0.0 | 0.0 | 0.00 | 0.00 | 0.00 | |||
| 20260502170515 | -17 | 299 | 1.6 | 9.7 | 0.00 | 0.00 | 0.00 | ||
| 20260502163538 | -17 | 295 | 1.6 | 9.7 | 0.00 | 0.00 | 0.00 | ||
| 20260502162515 | 23 | 293 | 1.6 | 11.3 | 0.00 | 0.00 | 0.00 | 45 | |
| 20260502161515 | 23 | 258 | 3.2 | 16.1 | 0.00 | 0.00 | 0.00 | 45 | |
| 20260502160515 | 24 | 241 | 9.7 | 17.7 | 0.00 | 0.00 | 0.00 | 43 | |
| 20260502151515 | 25 | 270 | 1.6 | 12.9 | 0.00 | 0.00 | 0.00 | 44 | |
| 20260502150515 | 25 | 236 | 4.8 | 17.7 | 0.00 | 0.00 | 0.00 | 43 | |
| 20260502130516 | 22 | 233 | 6.4 | 22.5 | 0.00 | 0.00 | 0.00 | 51 | |
| 20260502123516 | 21 | 280 | 1.6 | 22.5 | 0.00 | 0.00 | 0.00 | 55 | |
| 20260502122518 | 21 | 250 | 9.7 | 19.3 | 0.00 | 0.00 | 0.00 | 54 | |
| 20260502121516 | 21 | 252 | 6.4 | 20.9 | 0.00 | 0.00 | 0.00 | 55 | |
| 20260502120516 | 22 | 255 | 6.4 | 17.7 | 0.00 | 0.00 | 0.00 | 53 | |
| 20260502115516 | 22 | 248 | 6.4 | 22.5 | 0.00 | 0.00 | 0.00 | 52 | |
| 20260502114516 | 22 | 240 | 9.7 | 20.9 | 0.00 | 0.00 | 0.00 | 51 | |
| 20260502113516 | 22 | 231 | 9.7 | 27.4 | 0.00 | 0.00 | 0.00 | 52 | |
| 20260502112518 | 22 | 218 | 9.7 | 25.7 | 0.00 | 0.00 | 0.00 | 52 | |
| 20260502111538 | 21 | 247 | 8.0 | 25.7 | 0.00 | 0.00 | 0.00 | 52 | |
| 20260502110536 | 21 | 273 | 8.0 | 25.7 | 0.00 | 0.00 | 0.00 | 52 | |
| 20260502105536 | 21 | 238 | 9.7 | 22.5 | 0.00 | 0.00 | 0.00 | 51 | |
| 20260502104516 | 21 | 227 | 12.9 | 33.8 | 0.00 | 0.00 | 0.00 | 53 | |
| 20260502103536 | 21 | 215 | 12.9 | 22.5 | 0.00 | 0.00 | 0.00 | 55 | |
| 20260502102538 | 21 | 253 | 4.8 | 20.9 | 0.00 | 0.00 | 0.00 | 55 | |
| 20260502101516 | 20 | 235 | 8.0 | 19.3 | 0.00 | 0.00 | 0.00 | 56 | |
| 20260502100518 | 20 | 229 | 4.8 | 17.7 | 0.00 | 0.00 | 0.00 | 56 | |
| 20260502091516 | 19 | 255 | 4.8 | 19.3 | 0.00 | 0.00 | 0.00 | 56 | |
| 20260502090518 | 19 | 244 | 6.4 | 19.3 | 0.00 | 0.00 | 0.00 | 55 | |
| 20260502071516 | -17 | 211 | 3.2 | 9.7 | 0.00 | 0.00 | 0.00 | ||
| 20260502070516 | -17 | 222 | 0.0 | 4.8 | 0.00 | 0.00 | 0.00 | ||
| 20260502065516 | -17 | 222 | 0.0 | 6.4 | 0.00 | 0.00 | 0.00 | ||
| 20260502064537 | -17 | 222 | 0.0 | 3.2 | 0.00 | 0.00 | 0.00 | ||
| 20260502063515 | -17 | 221 | 1.6 | 12.9 | 0.00 | 0.00 | 0.00 | ||
| 20260502062515 | -17 | 212 | 4.8 | 11.3 | 0.00 | 0.00 | 0.00 | ||
| 20260502061517 | -17 | 222 | 3.2 | 8.0 | 0.00 | 0.00 | 0.00 | ||
| 20260502060515 | -17 | 222 | 0.0 | 6.4 | 0.00 | 0.00 | 0.00 | ||
| 20260502055537 | -17 | 212 | 1.6 | 12.9 | 0.00 | 0.00 | 0.00 | ||
| 20260502054517 | -17 | 200 | 1.6 | 17.7 | 0.00 | 0.00 | 0.00 | ||
| 20260502053515 | -17 | 204 | 3.2 | 8.0 | 0.00 | 0.00 | 0.00 | ||
| 20260502052515 | -17 | 189 | 0.0 | 3.2 | 0.00 | 0.00 | 0.00 | ||
| 20260502051537 | -17 | 189 | 0.0 | 1.6 | 0.00 | 0.00 | 0.00 | ||
| 20260502050517 | -17 | 0.0 | 9.7 | 0.00 | 0.00 | 0.00 | |||
| 20260502045537 | -17 | 143 | 0.0 | 4.8 | 0.00 | 0.00 | 0.00 | ||
| 20260502044515 | -17 | 195 | 0.0 | 4.8 | 0.00 | 0.00 | 0.00 | ||
| 20260502043515 | -17 | 192 | 1.6 | 8.0 | 0.00 | 0.00 | 0.00 | ||
| 20260502042515 | -17 | 145 | 1.6 | 4.8 | 0.00 | 0.00 | 0.00 | ||
| 20260502041515 | -17 | 0.0 | 0.0 | 0.00 | 0.00 | 0.00 | |||
| 20260502040517 | -17 | 0.0 | 0.0 | 0.00 | 0.00 | 0.00 | |||
| 20260502035517 | -17 | 0.0 | 0.0 | 0.00 | 0.00 | 0.00 | |||
| 20260502034515 | -17 | 0.0 | 0.0 | 0.00 | 0.00 | 0.00 | |||
| 20260502033515 | -17 | 0.0 | 0.0 | 0.00 | 0.00 | 0.00 | |||
| 20260502032535 | -17 | 0.0 | 0.0 | 0.00 | 0.00 | 0.00 | |||
| 20260502031515 | -17 | 0.0 | 0.0 | 0.00 | 0.00 | 0.00 | |||
| 20260502030515 | -17 | 0.0 | 0.0 | 0.00 | 0.00 | 0.00 | |||
| 20260502025535 | -17 | 0.0 | 0.0 | 0.00 | 0.00 | 0.00 | |||
| 20260502024515 | -17 | 0.0 | 0.0 | 0.00 | 0.00 | 0.00 | |||
| 20260502023515 | -17 | 0.0 | 1.6 | 0.00 | 0.00 | 0.00 | |||
| 20260502022517 | -17 | 0.0 | 0.0 | 0.00 | 0.00 | 0.00 | |||
| 20260502021515 | -17 | 0.0 | 0.0 | 0.00 | 0.00 | 0.00 | |||
| 20260502020515 | -17 | 0.0 | 0.0 | 0.00 | 0.00 | 0.00 | |||
| 20260502015535 | -17 | 0.0 | 0.0 | 0.00 | 0.00 | 0.00 | |||
| 20260502014517 | -17 | 0.0 | 0.0 | 0.00 | 0.00 | 0.00 | |||
| 20260502013515 | -17 | 0.0 | 0.0 | 0.00 | 0.00 | 0.00 | |||
| 20260502012516 | -17 | 0.0 | 0.0 | 0.00 | 0.00 | 0.00 | |||
| 20260502011535 | -17 | 0.0 | 0.0 | 0.00 | 0.00 | 0.00 | |||
| 20260502010517 | -17 | 0.0 | 0.0 | 0.00 | 0.00 | 0.00 | |||
| 20260502005515 | -17 | 0.0 | 0.0 | 0.00 | 0.00 | 0.00 | |||
| 20260502004535 | -17 | 0.0 | 0.0 | 0.00 | 0.00 | 0.00 | |||
| 20260502003515 | -17 | 0.0 | 0.0 | 0.00 | 0.00 | 0.00 | |||
| 20260502002516 | -17 | 128 | 0.0 | 3.2 | 0.00 | 0.00 | 0.00 | ||
| 20260502001515 | -17 | 0.0 | 0.0 | 0.00 | 0.00 | 0.00 | |||
| 20260502000515 | -17 | 0.0 | 0.0 | 0.00 | 0.00 | 0.00 | |||
| 20260501235515 | -17 | 0.0 | 0.0 | 0.00 | 0.00 | 0.00 | |||
| 20260501234515 | -17 | 0.0 | 0.0 | 0.00 | 0.00 | 0.00 | |||
| 20260501233515 | -17 | 128 | 0.0 | 1.6 | 0.00 | 0.00 | 0.00 | ||
| 20260501232515 | -17 | 0.0 | 0.0 | 0.00 | 0.00 | 0.00 |